Airfield :
LOGIN :

Register | Disclaimer

   EN    FR    IT 

 










Legend :    VFR   Marginal VFR   IFR   Intensive IFR   Very Intensive IFR
Visi :
Ceiling :
>= 8 km
>= 3000ft
5 to 8 km
1000 to 3000 ft
1500m to 5 km
500 to 1000 ft
800 to 1500m
200 to 500 ft
< 800m
< 200 ft
Symbols :   Thunderstorms  Fog  Heavy snow  Heavy precipitations  Wind > 20 kt
SIGMETs :     Misc.  Thunderstorms  Icing  Turbulence  Mountain Waves  Volcanic Ashes






- Airport Elevation : 659 ft
- IATA code : LGG


EBLG - Liège

CURRENT METAR :
  • 252350Z 21008KT 9999 FEW020 BKN043 10/08 Q1001 NOSIG

EXPIRED METARs :
  • 252320Z 19008KT 9999 -RA FEW020 BKN043 10/09 Q1001 NOSIG
  • 252250Z 20009KT 9999 -RA FEW020 BKN043 10/09 Q1002 TEMPO 4000 SHRA
  • 252220Z 20007KT 9999 -RA FEW020 BKN043 10/09 Q1002 TEMPO 4000 SHRA
  • 252150Z 19008KT 9999 FEW020 BKN045 10/09 Q1002 TEMPO 4000 SHRA

TAF TAF EBLG
Valid from the 26 at 00:00 until the 27 at 06:00 UTC


252320Z 2600/2706 21008KT 9999 SCT018
PROB30
TEMPO 2605/2608 BKN010
PROB30
TEMPO 2612/2615 22015G26KT
PROB30
TEMPO 2616/2706 4000 SHRA BKN012CB
PROB30
TEMPO 2701/2706 BKN010



MET'MAP, your aeronautical weather chart ! - Copyright ORBIFLY December 2007 - Disclaimer

ORBIFLY MET'MAP TEAM :

Programming & Development : Alexandra Zaïnal
Concept & original design : Baudouin d'Aumeries
Assistance for programming : Marc-Olivier Méhu
Technical & hardware support : Manuel Goepfert

Contact : metmap@orbifly.com




SOURCES & CREDITS :

   NOAA